createdAt,value
2023-02-13T00:00:48.915Z,19.90
2023-02-13T00:02:52.532Z,21.30
2023-02-13T00:04:55.609Z,20.20
2023-02-13T00:06:58.756Z,19.90
2023-02-13T00:09:02.736Z,18.55
2023-02-13T00:11:07.611Z,19.75
2023-02-13T00:13:10.671Z,20.50
2023-02-13T00:15:13.734Z,17.80
2023-02-13T00:17:16.796Z,20.95
2023-02-13T00:19:19.884Z,19.13
2023-02-13T00:21:22.973Z,19.30
2023-02-13T00:23:26.233Z,19.80
2023-02-13T00:25:29.643Z,18.55
2023-02-13T00:27:34.246Z,21.75
2023-02-13T00:29:38.185Z,21.98
2023-02-13T00:31:41.395Z,22.33
2023-02-13T00:33:44.938Z,21.20
2023-02-13T00:35:48.028Z,20.02
2023-02-13T00:37:51.063Z,22.55
2023-02-13T00:39:54.519Z,23.45
2023-02-13T00:41:57.609Z,23.58
2023-02-13T00:44:02.063Z,21.52
2023-02-13T00:46:07.411Z,24.45
2023-02-13T00:48:10.611Z,23.67
2023-02-13T00:50:13.731Z,21.25
2023-02-13T00:52:16.903Z,21.48
2023-02-13T00:54:27.617Z,27.08
2023-02-13T00:56:30.681Z,21.95
2023-02-13T00:58:34.135Z,20.70
2023-02-13T01:00:38.693Z,19.80
2023-02-13T01:02:41.889Z,21.40
2023-02-13T01:04:44.982Z,24.55
2023-02-13T01:06:48.035Z,19.00
2023-02-13T01:08:51.124Z,22.88
2023-02-13T01:10:54.253Z,22.40
2023-02-13T01:12:57.603Z,20.85
2023-02-13T01:15:00.707Z,23.65
2023-02-13T01:17:05.275Z,21.23
2023-02-13T01:19:08.321Z,21.05
2023-02-13T01:21:23.278Z,22.17
2023-02-13T01:23:31.482Z,16.83
2023-02-13T01:25:34.699Z,21.50
2023-02-13T01:27:38.388Z,24.13
2023-02-13T01:29:41.476Z,23.73
2023-02-13T01:31:44.665Z,20.30
2023-02-13T01:33:49.094Z,19.15
2023-02-13T01:35:52.633Z,22.88
2023-02-13T01:37:55.743Z,21.30
2023-02-13T01:40:00.157Z,19.25
2023-02-13T01:42:03.301Z,18.45
2023-02-13T01:44:40.123Z,20.55
2023-02-13T01:46:44.311Z,21.60
2023-02-13T01:48:49.550Z,18.05
2023-02-13T01:50:54.248Z,18.83
2023-02-13T01:53:03.337Z,21.45
2023-02-13T01:55:07.821Z,19.90
2023-02-13T01:57:15.160Z,19.20
2023-02-13T01:59:20.158Z,19.48
2023-02-13T02:01:23.722Z,19.02
2023-02-13T02:03:29.432Z,22.33
2023-02-13T02:05:38.642Z,21.55
2023-02-13T02:07:42.847Z,21.20
2023-02-13T02:09:46.418Z,21.38
2023-02-13T02:11:53.771Z,22.23
2023-02-13T02:13:57.447Z,25.52
2023-02-13T02:16:08.694Z,20.90
2023-02-13T02:18:16.409Z,33.65
2023-02-13T02:20:27.790Z,30.08
2023-02-13T02:23:00.589Z,23.15
2023-02-13T02:25:25.775Z,23.42
2023-02-13T02:27:47.127Z,18.42
2023-02-13T02:30:21.994Z,24.08
2023-02-13T02:32:50.330Z,19.50
2023-02-13T02:34:58.459Z,19.05
2023-02-13T02:37:11.428Z,18.83
2023-02-13T02:39:23.685Z,17.63
2023-02-13T02:41:43.139Z,19.15
2023-02-13T02:43:55.550Z,19.85
2023-02-13T02:46:03.911Z,18.90
2023-02-13T02:48:28.999Z,19.15
2023-02-13T02:50:36.285Z,21.75
2023-02-13T02:52:49.428Z,21.13
2023-02-13T02:55:07.748Z,22.60
2023-02-13T02:57:22.954Z,22.92
2023-02-13T02:59:50.567Z,21.80
2023-02-13T03:02:12.497Z,21.80
2023-02-13T03:04:42.432Z,20.15
2023-02-13T03:06:47.847Z,19.33
2023-02-13T03:09:11.955Z,21.20
2023-02-13T03:11:32.933Z,23.02
2023-02-13T03:13:42.358Z,21.38
2023-02-13T03:16:00.365Z,18.58
2023-02-13T03:18:29.567Z,22.30
2023-02-13T03:20:59.038Z,22.95
2023-02-13T03:23:10.042Z,19.80
2023-02-13T03:25:19.128Z,20.15
2023-02-13T03:27:58.344Z,24.25
2023-02-13T03:30:11.753Z,23.65
2023-02-13T03:32:22.483Z,21.08
2023-02-13T03:34:46.648Z,20.42
2023-02-13T03:37:11.422Z,23.85
2023-02-13T03:39:19.552Z,20.45
2023-02-13T03:41:24.890Z,22.67
2023-02-13T03:43:28.567Z,21.23
2023-02-13T03:45:51.444Z,19.15
2023-02-13T03:47:56.625Z,20.15
2023-02-13T03:50:08.024Z,23.25
2023-02-13T03:52:16.747Z,21.20
2023-02-13T03:54:41.794Z,20.83
2023-02-13T03:57:02.891Z,23.35
2023-02-13T03:59:17.628Z,24.55
2023-02-13T04:01:24.367Z,20.17
2023-02-13T04:03:29.739Z,20.50
2023-02-13T04:05:34.504Z,20.02
2023-02-13T04:07:39.630Z,21.60
2023-02-13T04:09:44.196Z,20.45
2023-02-13T04:11:53.830Z,20.38
2023-02-13T04:13:59.046Z,23.45
2023-02-13T04:16:07.698Z,20.63
2023-02-13T04:18:13.675Z,22.33
2023-02-13T04:20:16.719Z,22.63
2023-02-13T04:22:20.422Z,22.63
2023-02-13T04:24:24.764Z,20.90
2023-02-13T04:26:32.606Z,22.17
2023-02-13T04:28:35.838Z,21.05
2023-02-13T04:30:39.475Z,20.85
2023-02-13T04:32:42.586Z,20.80
2023-02-13T04:34:45.679Z,20.65
2023-02-13T04:36:48.879Z,20.60
2023-02-13T04:38:52.030Z,23.42
2023-02-13T04:40:56.787Z,23.48
2023-02-13T04:43:00.020Z,23.25
2023-02-13T04:45:03.181Z,22.23
2023-02-13T04:47:06.256Z,27.25
2023-02-13T04:49:09.414Z,21.17
2023-02-13T04:51:12.476Z,23.15
2023-02-13T04:53:15.507Z,21.40
2023-02-13T04:55:18.594Z,19.83
2023-02-13T04:57:22.974Z,24.42
2023-02-13T04:59:26.087Z,22.58
2023-02-13T05:01:29.243Z,22.30
2023-02-13T05:03:32.372Z,22.20
2023-02-13T05:05:36.132Z,22.02
2023-02-13T05:07:39.296Z,18.35
2023-02-13T05:09:42.363Z,23.40
2023-02-13T05:11:45.414Z,20.13
2023-02-13T05:13:49.884Z,20.25
2023-02-13T05:15:53.288Z,23.17
2023-02-13T05:17:56.405Z,22.30
2023-02-13T05:19:59.929Z,20.50
2023-02-13T05:22:20.429Z,21.08
2023-02-13T05:24:23.564Z,25.67
2023-02-13T05:26:26.592Z,24.75
2023-02-13T05:28:47.322Z,25.85
2023-02-13T05:30:51.928Z,24.63
2023-02-13T05:32:55.694Z,24.20
2023-02-13T05:34:58.768Z,20.55
2023-02-13T05:37:01.834Z,24.45
2023-02-13T05:39:05.375Z,27.67
2023-02-13T05:41:08.556Z,23.88
2023-02-13T05:43:11.732Z,25.98
2023-02-13T05:45:16.137Z,23.40
2023-02-13T05:47:20.536Z,29.05
2023-02-13T05:49:23.975Z,21.15
2023-02-13T05:51:27.100Z,29.02
2023-02-13T05:53:30.753Z,24.75
2023-02-13T05:55:33.986Z,23.15
2023-02-13T05:57:37.043Z,27.92
2023-02-13T05:59:40.197Z,23.88
2023-02-13T06:01:43.408Z,26.85
2023-02-13T06:03:48.213Z,25.95
2023-02-13T06:05:51.435Z,24.88
2023-02-13T06:07:54.488Z,26.45
2023-02-13T06:09:59.537Z,28.05
2023-02-13T06:12:02.561Z,28.75
2023-02-13T06:14:05.639Z,35.88
2023-02-13T06:16:09.190Z,30.60
2023-02-13T06:18:12.655Z,30.02
2023-02-13T06:20:17.259Z,30.38
2023-02-13T06:22:20.340Z,35.33
2023-02-13T06:24:23.406Z,32.83
2023-02-13T06:26:26.440Z,38.67
2023-02-13T06:28:29.624Z,34.92
2023-02-13T06:30:32.910Z,35.20
2023-02-13T06:32:35.999Z,45.67
2023-02-13T06:34:39.078Z,33.92
2023-02-13T06:36:43.495Z,32.88
2023-02-13T06:38:46.620Z,34.25
2023-02-13T06:40:50.607Z,31.83
2023-02-13T06:42:53.685Z,35.15
2023-02-13T06:44:56.774Z,37.30
2023-02-13T06:47:00.037Z,32.25
2023-02-13T06:49:03.255Z,32.50
2023-02-13T06:51:06.914Z,30.05
2023-02-13T06:53:11.301Z,33.58
2023-02-13T06:55:14.474Z,29.27
2023-02-13T06:57:17.681Z,31.90
2023-02-13T06:59:20.754Z,30.50
2023-02-13T07:01:23.907Z,30.55
2023-02-13T07:03:27.089Z,33.10
2023-02-13T07:05:30.191Z,32.92
2023-02-13T07:07:34.392Z,30.88
2023-02-13T07:09:39.223Z,32.83
2023-02-13T07:11:42.228Z,31.20
2023-02-13T07:13:45.296Z,32.58
2023-02-13T07:15:48.427Z,27.00
2023-02-13T07:17:56.920Z,27.55
2023-02-13T07:20:00.122Z,34.00
2023-02-13T07:22:03.215Z,30.90
2023-02-13T07:24:08.156Z,30.52
2023-02-13T07:26:12.816Z,27.45
2023-02-13T07:28:15.966Z,25.05
2023-02-13T07:30:19.442Z,28.75
2023-02-13T07:32:22.530Z,26.67
2023-02-13T07:34:25.641Z,28.40
2023-02-13T07:36:28.952Z,26.77
2023-02-13T07:38:32.143Z,26.13
2023-02-13T07:40:35.228Z,26.83
2023-02-13T07:42:39.828Z,24.92
2023-02-13T07:44:42.916Z,23.83
2023-02-13T07:46:46.123Z,26.33
2023-02-13T07:48:49.582Z,21.60
2023-02-13T07:50:52.650Z,21.30
2023-02-13T07:52:56.195Z,22.27
2023-02-13T07:54:59.282Z,20.48
2023-02-13T07:57:02.385Z,22.00
2023-02-13T07:59:07.905Z,22.45
2023-02-13T08:01:12.719Z,22.50
2023-02-13T08:03:15.936Z,21.27
2023-02-13T08:05:19.432Z,23.45
2023-02-13T08:07:22.572Z,20.38
2023-02-13T08:09:43.342Z,25.77
2023-02-13T08:11:55.155Z,22.85
2023-02-13T08:13:58.295Z,21.10
2023-02-13T08:16:03.994Z,20.75
2023-02-13T08:18:07.375Z,19.00
2023-02-13T08:20:11.322Z,20.65
2023-02-13T08:22:14.495Z,20.88
2023-02-13T08:24:20.597Z,21.20
2023-02-13T08:26:23.705Z,21.00
2023-02-13T08:28:26.857Z,19.65
2023-02-13T08:30:30.208Z,21.38
2023-02-13T08:32:44.826Z,22.17
2023-02-13T08:34:51.784Z,21.00
2023-02-13T08:36:54.917Z,18.60
2023-02-13T08:38:58.092Z,17.98
2023-02-13T08:41:01.222Z,19.38
2023-02-13T08:43:05.828Z,16.17
2023-02-13T08:45:11.735Z,22.13
2023-02-13T08:47:15.134Z,18.20
2023-02-13T08:49:19.795Z,19.88
2023-02-13T08:51:23.049Z,18.02
2023-02-13T08:53:26.238Z,18.65
2023-02-13T08:55:31.497Z,20.45
2023-02-13T08:57:34.679Z,18.27
2023-02-13T08:59:37.848Z,18.15
2023-02-13T09:01:41.088Z,18.77
2023-02-13T09:03:44.204Z,19.25
2023-02-13T09:05:48.834Z,19.90
2023-02-13T09:07:52.167Z,17.70
2023-02-13T09:09:55.345Z,19.00
2023-02-13T09:11:58.464Z,17.60
2023-02-13T09:14:01.582Z,17.70
2023-02-13T09:16:05.935Z,17.33
2023-02-13T09:18:09.206Z,19.30
2023-02-13T09:20:14.017Z,19.67
2023-02-13T09:22:18.525Z,19.02
2023-02-13T09:24:21.786Z,19.00
2023-02-13T09:26:24.823Z,18.40
2023-02-13T09:28:28.250Z,15.93
2023-02-13T09:30:32.279Z,17.85
2023-02-13T09:32:35.551Z,17.85
2023-02-13T09:34:38.764Z,16.95
2023-02-13T09:36:41.893Z,19.15
2023-02-13T09:38:46.493Z,16.40
2023-02-13T09:40:51.589Z,17.73
2023-02-13T09:42:55.214Z,18.10
2023-02-13T09:45:00.977Z,18.40
2023-02-13T09:47:06.994Z,18.45
2023-02-13T09:49:13.788Z,17.83
2023-02-13T09:51:18.774Z,19.02
2023-02-13T09:53:24.114Z,16.48
2023-02-13T09:55:31.470Z,18.33
2023-02-13T09:57:35.941Z,18.92
2023-02-13T09:59:47.440Z,16.67
2023-02-13T10:01:51.895Z,17.35
2023-02-13T10:04:17.004Z,13.98
2023-02-13T10:06:25.566Z,13.15
2023-02-13T10:08:36.238Z,15.98
2023-02-13T10:10:49.688Z,14.23
2023-02-13T10:13:14.680Z,15.88
2023-02-13T10:15:23.351Z,15.73
2023-02-13T10:17:31.785Z,12.18
2023-02-13T10:19:37.748Z,15.57
2023-02-13T10:21:43.894Z,14.90
2023-02-13T10:23:49.464Z,14.80
2023-02-13T10:25:59.471Z,15.70
2023-02-13T10:28:08.647Z,15.50
2023-02-13T10:30:20.199Z,14.67
2023-02-13T10:32:28.419Z,16.98
2023-02-13T10:34:35.533Z,13.67
2023-02-13T10:36:42.267Z,14.93
2023-02-13T10:38:47.089Z,22.10
2023-02-13T10:41:06.513Z,15.27
2023-02-13T10:43:10.669Z,14.77
2023-02-13T10:45:34.364Z,13.67
2023-02-13T10:47:55.400Z,13.10
2023-02-13T10:50:08.029Z,11.65
2023-02-13T10:52:18.453Z,14.70
2023-02-13T10:54:32.728Z,15.32
2023-02-13T10:56:40.046Z,13.80
2023-02-13T10:58:52.478Z,12.30
2023-02-13T11:00:57.907Z,14.37
2023-02-13T11:03:01.321Z,13.87
2023-02-13T11:05:15.632Z,15.17
2023-02-13T11:07:21.160Z,14.67
2023-02-13T11:09:25.255Z,15.40
2023-02-13T11:11:33.708Z,13.83
2023-02-13T11:13:38.206Z,13.63
2023-02-13T11:15:41.395Z,16.17
2023-02-13T11:17:46.637Z,13.60
2023-02-13T11:19:51.968Z,12.73
2023-02-13T11:21:57.138Z,12.67
2023-02-13T11:24:00.247Z,14.03
2023-02-13T11:26:07.665Z,14.03
2023-02-13T11:28:16.423Z,13.33
2023-02-13T11:30:33.008Z,13.80
2023-02-13T11:32:37.513Z,14.47
2023-02-13T11:34:41.032Z,14.77
2023-02-13T11:36:44.228Z,15.43
2023-02-13T11:38:47.710Z,13.57
2023-02-13T11:40:53.382Z,14.27
2023-02-13T11:42:56.543Z,14.90
2023-02-13T11:45:01.381Z,13.75
2023-02-13T11:47:04.775Z,16.30
2023-02-13T11:49:17.311Z,13.20
2023-02-13T11:51:20.458Z,14.53
2023-02-13T11:53:25.592Z,12.57
2023-02-13T11:55:32.392Z,12.97
2023-02-13T11:57:37.383Z,12.83
2023-02-13T11:59:43.119Z,13.70
2023-02-13T12:01:49.374Z,12.63
2023-02-13T12:04:02.682Z,11.60
2023-02-13T12:06:14.094Z,12.40
2023-02-13T12:08:17.346Z,13.47
2023-02-13T12:10:23.591Z,13.20
2023-02-13T12:12:31.582Z,12.50
2023-02-13T12:14:39.300Z,12.60
2023-02-13T12:16:44.912Z,12.20
2023-02-13T12:18:51.552Z,12.53
2023-02-13T12:20:59.268Z,13.37
2023-02-13T12:23:07.023Z,13.23
2023-02-13T12:25:24.851Z,11.90
2023-02-13T12:27:34.087Z,12.87
2023-02-13T12:29:56.961Z,12.77
2023-02-13T12:32:06.280Z,12.07
2023-02-13T12:34:30.651Z,12.90
2023-02-13T12:36:37.652Z,13.60
2023-02-13T12:38:50.628Z,12.50
2023-02-13T12:41:11.471Z,12.80
2023-02-13T12:43:30.639Z,11.67
2023-02-13T12:45:38.574Z,12.23
2023-02-13T12:47:49.584Z,12.40
2023-02-13T12:50:22.194Z,11.03
2023-02-13T12:52:35.381Z,12.33
2023-02-13T12:54:48.592Z,12.93
2023-02-13T12:57:00.981Z,11.93
2023-02-13T12:59:10.408Z,11.40
2023-02-13T13:01:21.294Z,13.10
2023-02-13T13:03:35.060Z,11.77
2023-02-13T13:06:11.837Z,12.67
2023-02-13T13:08:25.862Z,13.80
2023-02-13T13:10:41.452Z,12.13
2023-02-13T13:12:52.572Z,13.67
2023-02-13T13:15:00.488Z,12.83
2023-02-13T13:17:10.363Z,12.00
2023-02-13T13:19:21.146Z,11.93
2023-02-13T13:21:31.878Z,12.77
2023-02-13T13:23:39.346Z,12.70
2023-02-13T13:25:50.732Z,11.20
2023-02-13T13:27:56.655Z,12.80
2023-02-13T13:30:01.125Z,12.73
2023-02-13T13:32:07.492Z,12.73
2023-02-13T13:34:16.716Z,15.53
2023-02-13T13:36:25.169Z,11.00
2023-02-13T13:38:39.902Z,10.40
2023-02-13T13:40:47.651Z,14.23
2023-02-13T13:42:54.690Z,14.83
2023-02-13T13:45:10.938Z,10.57
2023-02-13T13:47:24.744Z,11.70
2023-02-13T13:49:41.637Z,11.77
2023-02-13T13:51:44.778Z,11.27
2023-02-13T13:54:24.961Z,11.23
2023-02-13T13:57:12.433Z,12.63
2023-02-13T13:59:18.293Z,11.23
2023-02-13T14:01:31.061Z,11.50
2023-02-13T14:03:37.028Z,9.73
2023-02-13T14:05:59.272Z,9.60
2023-02-13T14:08:04.159Z,11.10
2023-02-13T14:10:47.424Z,11.10
2023-02-13T14:13:02.535Z,11.00
2023-02-13T14:15:06.114Z,14.80
2023-02-13T14:17:14.804Z,10.60
2023-02-13T14:19:30.280Z,9.53
2023-02-13T14:21:33.452Z,10.63
2023-02-13T14:23:53.133Z,10.97
2023-02-13T14:26:20.508Z,9.00
2023-02-13T14:28:26.309Z,10.10
2023-02-13T14:30:34.619Z,11.30
2023-02-13T14:32:40.778Z,9.43
2023-02-13T14:34:45.674Z,10.27
2023-02-13T14:37:07.476Z,11.20
2023-02-13T14:39:23.062Z,9.27
2023-02-13T14:41:47.586Z,9.30
2023-02-13T14:43:54.035Z,11.10
2023-02-13T14:45:58.458Z,10.20
2023-02-13T14:48:07.536Z,11.57
2023-02-13T14:50:17.449Z,9.77
2023-02-13T14:52:26.340Z,8.80
2023-02-13T14:54:34.629Z,10.43
2023-02-13T14:56:39.209Z,9.47
2023-02-13T14:58:48.698Z,9.17
2023-02-13T15:00:56.230Z,11.30
2023-02-13T15:03:03.730Z,8.90
2023-02-13T15:05:11.619Z,10.13
2023-02-13T15:07:17.940Z,9.70
2023-02-13T15:09:27.375Z,9.47
2023-02-13T15:11:38.925Z,9.07
2023-02-13T15:13:42.727Z,7.93
2023-02-13T15:15:46.842Z,9.03
2023-02-13T15:17:51.862Z,9.53
2023-02-13T15:19:57.893Z,9.60
2023-02-13T15:22:03.245Z,11.17
2023-02-13T15:24:06.680Z,9.53
2023-02-13T15:26:10.156Z,9.57
2023-02-13T15:28:20.875Z,10.60
2023-02-13T15:30:25.802Z,11.20
2023-02-13T15:32:34.356Z,9.53
2023-02-13T15:34:40.852Z,11.40
2023-02-13T15:36:43.899Z,10.20
2023-02-13T15:38:47.116Z,11.23
2023-02-13T15:40:52.034Z,10.47
2023-02-13T15:42:56.100Z,9.83
2023-02-13T15:44:59.561Z,10.40
2023-02-13T15:47:06.408Z,9.60
2023-02-13T15:49:14.355Z,14.60
2023-02-13T15:51:21.750Z,11.57
2023-02-13T15:53:24.950Z,10.40
2023-02-13T15:55:29.646Z,13.77
2023-02-13T15:57:33.083Z,9.93
2023-02-13T15:59:38.475Z,11.73
2023-02-13T16:01:44.334Z,11.67
2023-02-13T16:03:49.629Z,10.45
2023-02-13T16:05:52.841Z,11.17
2023-02-13T16:07:59.279Z,12.33
2023-02-13T16:10:18.769Z,13.02
2023-02-13T16:12:24.166Z,12.40
2023-02-13T16:14:28.232Z,12.13
2023-02-13T16:16:33.223Z,11.53
2023-02-13T16:18:36.545Z,19.05
2023-02-13T16:20:39.748Z,13.30
2023-02-13T16:22:46.392Z,16.40
2023-02-13T16:24:54.213Z,12.80
2023-02-13T16:26:57.603Z,14.20
2023-02-13T16:29:00.804Z,13.93
2023-02-13T16:31:05.019Z,13.70
2023-02-13T16:33:29.401Z,13.05
2023-02-13T16:35:33.661Z,11.90
2023-02-13T16:37:36.843Z,12.60
2023-02-13T16:39:39.915Z,11.90
2023-02-13T16:41:44.492Z,12.32
2023-02-13T16:43:48.437Z,14.18
2023-02-13T16:45:51.879Z,12.27
2023-02-13T16:48:02.454Z,14.65
2023-02-13T16:50:06.111Z,16.98
2023-02-13T16:52:12.660Z,13.77
2023-02-13T16:54:34.692Z,12.00
2023-02-13T16:56:39.418Z,13.25
2023-02-13T16:58:43.951Z,14.48
2023-02-13T17:00:51.248Z,14.48
2023-02-13T17:02:54.460Z,15.70
2023-02-13T17:05:00.015Z,12.43
2023-02-13T17:07:03.043Z,11.35
2023-02-13T17:09:06.114Z,13.82
2023-02-13T17:11:09.821Z,15.70
2023-02-13T17:13:16.639Z,17.42
2023-02-13T17:15:22.782Z,14.13
2023-02-13T17:17:28.043Z,14.35
2023-02-13T17:19:31.117Z,14.63
2023-02-13T17:21:34.417Z,14.35
2023-02-13T17:23:37.655Z,20.33
2023-02-13T17:25:41.278Z,13.70
2023-02-13T17:27:44.507Z,17.00
2023-02-13T17:29:47.774Z,17.33
2023-02-13T17:31:55.423Z,13.93
2023-02-13T17:33:58.544Z,14.73
2023-02-13T17:36:01.595Z,15.13
2023-02-13T17:38:06.307Z,13.50
2023-02-13T17:40:10.654Z,16.58
2023-02-13T17:42:20.803Z,17.88
2023-02-13T17:44:23.997Z,17.30
2023-02-13T17:46:27.407Z,16.30
2023-02-13T17:48:31.853Z,17.98
2023-02-13T17:50:36.116Z,18.65
2023-02-13T17:52:40.010Z,19.23
2023-02-13T17:54:43.990Z,16.10
2023-02-13T17:56:48.120Z,16.25
2023-02-13T17:58:51.557Z,20.30
2023-02-13T18:00:54.933Z,16.25
2023-02-13T18:02:59.679Z,14.52
2023-02-13T18:05:04.333Z,17.55
2023-02-13T18:07:07.888Z,16.05
2023-02-13T18:09:10.998Z,14.90
2023-02-13T18:11:14.055Z,17.52
2023-02-13T18:13:17.248Z,17.20
2023-02-13T18:15:21.053Z,19.83
2023-02-13T18:17:24.461Z,14.82
2023-02-13T18:19:28.436Z,16.65
2023-02-13T18:21:33.126Z,15.60
2023-02-13T18:23:36.442Z,14.73
2023-02-13T18:25:39.544Z,14.95
2023-02-13T18:27:42.742Z,16.52
2023-02-13T18:29:46.098Z,17.23
2023-02-13T18:31:51.789Z,17.60
2023-02-13T18:33:54.978Z,15.30
2023-02-13T18:36:02.350Z,15.77
2023-02-13T18:38:06.857Z,18.35
2023-02-13T18:40:10.774Z,17.35
2023-02-13T18:42:14.121Z,16.10
2023-02-13T18:44:27.156Z,17.60
2023-02-13T18:46:31.706Z,17.58
2023-02-13T18:48:34.823Z,18.30
2023-02-13T18:50:40.799Z,17.95
2023-02-13T18:52:43.946Z,18.10
2023-02-13T18:54:48.516Z,16.35
2023-02-13T18:56:51.770Z,18.65
2023-02-13T18:58:54.944Z,16.35
2023-02-13T19:00:58.547Z,17.30
2023-02-13T19:03:01.884Z,17.25
2023-02-13T19:05:06.443Z,19.20
2023-02-13T19:07:10.878Z,20.67
2023-02-13T19:09:13.990Z,17.52
2023-02-13T19:11:23.276Z,19.75
2023-02-13T19:13:26.404Z,18.63
2023-02-13T19:15:29.578Z,19.30
2023-02-13T19:17:32.786Z,18.83
2023-02-13T19:19:35.984Z,20.38
2023-02-13T19:21:40.557Z,18.38
2023-02-13T19:23:46.546Z,20.48
2023-02-13T19:25:49.625Z,23.23
2023-02-13T19:27:54.097Z,18.95
2023-02-13T19:29:58.004Z,18.13
2023-02-13T19:32:01.580Z,19.52
2023-02-13T19:34:06.873Z,22.85
2023-02-13T19:36:12.693Z,25.10
2023-02-13T19:38:15.875Z,19.77
2023-02-13T19:40:19.191Z,22.23
2023-02-13T19:42:22.386Z,22.02
2023-02-13T19:44:26.852Z,25.90
2023-02-13T19:46:31.660Z,37.58
2023-02-13T19:48:35.699Z,23.60
2023-02-13T19:50:39.061Z,31.23
2023-02-13T19:52:42.183Z,23.77
2023-02-13T19:54:45.223Z,36.60
2023-02-13T19:56:48.618Z,19.80
2023-02-13T19:58:51.774Z,27.42
2023-02-13T20:00:57.530Z,27.38
2023-02-13T20:03:03.623Z,32.35
2023-02-13T20:05:08.750Z,30.85
2023-02-13T20:07:11.965Z,36.70
2023-02-13T20:09:15.680Z,37.85
2023-02-13T20:11:20.374Z,34.92
2023-02-13T20:13:23.832Z,27.85
2023-02-13T20:15:27.610Z,32.58
2023-02-13T20:17:32.233Z,33.30
2023-02-13T20:19:38.524Z,22.92
2023-02-13T20:21:42.443Z,22.55
2023-02-13T20:23:49.605Z,22.70
2023-02-13T20:25:52.733Z,28.20
2023-02-13T20:27:55.924Z,22.45
2023-02-13T20:30:06.618Z,25.60
2023-02-13T20:32:10.919Z,25.63
2023-02-13T20:34:15.533Z,24.30
2023-02-13T20:36:20.555Z,22.88
2023-02-13T20:38:23.572Z,28.17
2023-02-13T20:40:27.120Z,23.75
2023-02-13T20:42:30.220Z,25.67
2023-02-13T20:44:33.390Z,25.02
2023-02-13T20:46:38.323Z,24.38
2023-02-13T20:48:42.009Z,22.00
2023-02-13T20:50:46.546Z,25.75
2023-02-13T20:52:49.686Z,25.10
2023-02-13T20:54:53.693Z,27.50
2023-02-13T20:56:56.836Z,34.45
2023-02-13T20:59:02.543Z,36.42
2023-02-13T21:01:12.535Z,46.88
2023-02-13T21:03:17.045Z,26.17
2023-02-13T21:05:20.223Z,30.92
2023-02-13T21:07:24.892Z,29.17
2023-02-13T21:09:28.300Z,27.90
2023-02-13T21:11:34.065Z,30.92
2023-02-13T21:13:39.218Z,40.60
2023-02-13T21:15:44.777Z,41.15
2023-02-13T21:17:47.845Z,35.17
2023-02-13T21:19:51.054Z,37.65
2023-02-13T21:21:54.178Z,49.63
2023-02-13T21:24:00.201Z,39.85
2023-02-13T21:26:04.112Z,32.97
2023-02-13T21:28:07.455Z,28.90
2023-02-13T21:30:11.717Z,33.47
2023-02-13T21:32:15.249Z,44.92
2023-02-13T21:34:19.283Z,44.63
2023-02-13T21:36:22.446Z,37.05
2023-02-13T21:38:25.761Z,49.33
2023-02-13T21:40:30.240Z,40.47
2023-02-13T21:42:33.359Z,28.17
2023-02-13T21:44:36.610Z,30.52
2023-02-13T21:46:39.811Z,37.90
2023-02-13T21:48:43.688Z,29.77
2023-02-13T21:50:46.817Z,38.15
2023-02-13T21:52:49.884Z,29.77
2023-02-13T21:54:53.071Z,28.52
2023-02-13T21:56:57.576Z,32.40
2023-02-13T21:59:00.977Z,37.60
2023-02-13T22:01:20.416Z,37.42
2023-02-13T22:03:27.154Z,31.95
2023-02-13T22:05:30.247Z,29.25
2023-02-13T22:07:53.407Z,29.02
2023-02-13T22:09:56.517Z,28.98
2023-02-13T22:12:01.035Z,42.30
2023-02-13T22:14:05.658Z,38.33
2023-02-13T22:16:10.106Z,40.92
2023-02-13T22:18:13.234Z,30.55
2023-02-13T22:20:16.540Z,30.77
2023-02-13T22:22:20.112Z,34.60
2023-02-13T22:24:23.341Z,33.25
2023-02-13T22:26:28.229Z,41.35
2023-02-13T22:28:32.978Z,30.85
2023-02-13T22:30:37.744Z,33.00
2023-02-13T22:32:41.056Z,32.20
2023-02-13T22:34:44.286Z,31.77
2023-02-13T22:36:47.346Z,29.20
2023-02-13T22:38:51.480Z,31.15
2023-02-13T22:40:54.610Z,32.25
2023-02-13T22:42:57.707Z,27.10
2023-02-13T22:45:02.161Z,26.42
2023-02-13T22:47:07.292Z,31.55
2023-02-13T22:49:10.467Z,27.83
2023-02-13T22:51:15.856Z,30.25
2023-02-13T22:53:18.972Z,27.55
2023-02-13T22:55:22.042Z,28.05
2023-02-13T22:57:25.283Z,30.45
2023-02-13T22:59:28.461Z,29.38
2023-02-13T23:01:32.884Z,33.00
2023-02-13T23:03:36.058Z,30.45
2023-02-13T23:05:40.723Z,29.55
2023-02-13T23:07:43.985Z,31.15
2023-02-13T23:09:47.468Z,33.53
2023-02-13T23:12:07.938Z,28.60
2023-02-13T23:14:11.412Z,28.17
2023-02-13T23:16:15.245Z,29.85
2023-02-13T23:18:19.002Z,28.60
2023-02-13T23:20:22.903Z,32.42
2023-02-13T23:22:26.040Z,31.50
2023-02-13T23:24:30.241Z,30.08
2023-02-13T23:26:33.242Z,30.95
2023-02-13T23:28:36.894Z,30.08
2023-02-13T23:30:40.938Z,29.83
2023-02-13T23:32:44.249Z,33.15
2023-02-13T23:34:48.692Z,32.58
2023-02-13T23:36:51.922Z,32.13
2023-02-13T23:38:55.041Z,26.52
2023-02-13T23:40:58.448Z,26.52
2023-02-13T23:43:01.752Z,27.85
2023-02-13T23:45:04.979Z,31.60
2023-02-13T23:47:08.076Z,36.58
2023-02-13T23:49:11.256Z,39.90
2023-02-13T23:51:15.938Z,33.95
2023-02-13T23:53:18.976Z,30.42
2023-02-13T23:55:22.146Z,28.70
2023-02-13T23:57:25.555Z,30.50
2023-02-13T23:59:28.799Z,30.85
